Time;durP1;ratioP1;P1;durP2;ratioP2;P2;SDS_P1;SDS_P2;PMS_P1;PMS_P2;Temp;Humidity;BMP_temperature;BMP_pressure;BME280_temperature;BME280_humidity;BME280_pressure;Samples;Min_cycle;Max_cycle;Signal;HPM_P1;HPM_P2
2021/08/21 00:00:15;;;;;;;42.53;27.75;;;13.10;99.90;;;;;;4188577;28;20044;-74
2021/08/21 00:02:15;;;;;;;45.30;27.25;;;13.20;99.90;;;;;;4193910;28;20411;-74
2021/08/21 00:04:17;;;;;;;44.17;26.20;;;13.10;99.90;;;;;;4195079;28;20062;-74
2021/08/21 00:06:17;;;;;;;42.13;26.08;;;13.10;99.90;;;;;;4209540;28;20024;-74
2021/08/21 00:08:18;;;;;;;39.72;25.33;;;13.10;99.90;;;;;;4191093;28;20029;-74
2021/08/21 00:10:19;;;;;;;39.03;23.63;;;13.00;99.90;;;;;;4210032;28;20467;-74
2021/08/21 00:12:19;;;;;;;40.33;24.52;;;13.00;99.90;;;;;;4209457;28;20054;-74
2021/08/21 00:14:20;;;;;;;43.60;24.48;;;12.90;99.90;;;;;;4210179;28;20051;-74
2021/08/21 00:16:20;;;;;;;38.92;24.27;;;12.90;99.90;;;;;;4211355;28;20043;-74
2021/08/21 00:18:21;;;;;;;39.33;25.55;;;12.90;99.90;;;;;;4210888;28;20449;-74
2021/08/21 00:20:22;;;;;;;39.20;25.38;;;12.90;99.90;;;;;;4210392;28;20379;-73
2021/08/21 00:22:23;;;;;;;39.42;25.80;;;12.90;99.90;;;;;;4193418;28;20040;-74
2021/08/21 00:24:24;;;;;;;37.20;23.33;;;13.00;99.90;;;;;;4210828;28;20032;-74
2021/08/21 00:26:24;;;;;;;34.13;21.25;;;13.00;99.90;;;;;;4211000;28;20036;-74
2021/08/21 00:28:25;;;;;;;34.15;20.00;;;12.90;99.90;;;;;;4193383;28;20113;-74
2021/08/21 00:30:25;;;;;;;27.42;17.75;;;12.90;99.90;;;;;;4210696;28;20029;-74
2021/08/21 00:32:26;;;;;;;24.08;18.52;;;12.90;99.90;;;;;;4205127;28;20071;-73
2021/08/21 00:34:27;;;;;;;29.73;21.55;;;12.80;99.90;;;;;;4207290;28;20056;-73
2021/08/21 00:36:28;;;;;;;27.55;19.67;;;12.80;99.90;;;;;;4189203;28;20040;-74
2021/08/21 00:38:28;;;;;;;26.40;19.13;;;12.80;99.90;;;;;;4211832;28;20105;-74
2021/08/21 00:40:29;;;;;;;30.45;21.02;;;12.80;99.90;;;;;;4192146;28;20350;-74
2021/08/21 00:42:29;;;;;;;25.00;18.20;;;12.70;99.90;;;;;;4214473;28;20108;-74
2021/08/21 00:44:31;;;;;;;25.08;17.55;;;12.70;99.90;;;;;;4213781;28;20570;-74
2021/08/21 00:46:32;;;;;;;29.90;21.13;;;12.60;99.90;;;;;;4214840;28;20066;-74
2021/08/21 00:48:32;;;;;;;32.22;21.83;;;12.60;99.90;;;;;;4210636;28;20073;-74
2021/08/21 00:50:34;;;;;;;24.65;16.73;;;12.60;99.90;;;;;;4188142;28;20037;-74
2021/08/21 00:52:35;;;;;;;22.48;17.30;;;12.60;99.90;;;;;;4196802;28;20534;-74
2021/08/21 00:54:36;;;;;;;23.88;18.10;;;12.50;99.90;;;;;;4210532;28;20389;-74
2021/08/21 00:56:36;;;;;;;23.60;16.95;;;12.50;99.90;;;;;;4194921;28;20094;-74
2021/08/21 00:58:37;;;;;;;27.60;19.90;;;12.50;99.90;;;;;;4210744;28;20029;-74
2021/08/21 01:00:38;;;;;;;22.13;17.20;;;12.50;99.90;;;;;;4210299;28;20032;-74
2021/08/21 01:02:39;;;;;;;23.42;18.00;;;12.50;99.90;;;;;;4207246;28;20040;-74
2021/08/21 01:04:52;;;;;;;26.10;17.90;;;12.50;99.90;;;;;;4211520;28;20032;-74
2021/08/21 01:06:53;;;;;;;26.30;16.98;;;12.50;99.90;;;;;;4212318;28;20035;-74
2021/08/21 01:08:54;;;;;;;25.55;19.75;;;12.50;99.90;;;;;;4214319;28;20490;-74
2021/08/21 01:10:54;;;;;;;20.98;15.10;;;12.40;99.90;;;;;;4210703;28;20054;-74
2021/08/21 01:12:55;;;;;;;26.00;17.60;;;12.50;99.90;;;;;;4194191;28;20036;-74
2021/08/21 01:14:56;;;;;;;21.50;16.27;;;12.40;99.90;;;;;;4206978;28;20472;-74
2021/08/21 01:16:57;;;;;;;20.67;16.65;;;12.40;99.90;;;;;;4196621;28;20399;-74
2021/08/21 01:18:58;;;;;;;19.98;15.43;;;12.40;99.90;;;;;;4212105;28;20024;-74
2021/08/21 01:21:00;;;;;;;20.60;15.45;;;12.40;99.90;;;;;;4212496;28;20386;-74
2021/08/21 01:23:02;;;;;;;19.52;16.50;;;12.40;99.90;;;;;;4211757;28;20447;-75
2021/08/21 01:25:09;;;;;;;21.38;16.60;;;12.40;99.90;;;;;;4196774;28;20399;-75
2021/08/21 01:27:23;;;;;;;22.33;17.02;;;12.40;99.90;;;;;;4210783;28;20043;-73
2021/08/21 01:29:23;;;;;;;22.98;18.63;;;12.40;99.90;;;;;;4213257;28;20125;-75
2021/08/21 01:31:24;;;;;;;25.20;19.65;;;12.40;99.90;;;;;;4195969;28;20040;-74
2021/08/21 01:33:24;;;;;;;20.73;16.25;;;12.40;99.90;;;;;;4189525;28;20036;-75
2021/08/21 01:35:25;;;;;;;22.08;17.08;;;12.30;99.90;;;;;;4213240;28;20445;-74
2021/08/21 01:37:26;;;;;;;31.48;20.10;;;12.40;99.90;;;;;;4207389;28;20056;-74
2021/08/21 01:39:27;;;;;;;27.27;17.63;;;12.40;99.90;;;;;;4194416;28;20045;-74
2021/08/21 01:41:27;;;;;;;21.27;16.90;;;12.40;99.90;;;;;;4195395;28;20037;-74
2021/08/21 01:43:28;;;;;;;22.73;18.25;;;12.40;99.90;;;;;;4195215;28;20064;-74
2021/08/21 01:45:28;;;;;;;20.45;16.35;;;12.40;99.90;;;;;;4210974;28;20032;-73
2021/08/21 01:47:29;;;;;;;18.00;15.10;;;12.40;99.90;;;;;;4212591;28;20040;-72
2021/08/21 01:49:30;;;;;;;21.00;17.42;;;12.40;99.90;;;;;;4192428;28;20052;-74
2021/08/21 01:51:31;;;;;;;25.33;18.23;;;12.40;99.90;;;;;;4212718;28;20038;-73
2021/08/21 01:53:31;;;;;;;27.10;19.98;;;12.40;99.90;;;;;;4212485;28;20064;-73
2021/08/21 01:55:32;;;;;;;26.02;19.13;;;12.40;99.90;;;;;;4190774;28;20050;-73
2021/08/21 01:57:33;;;;;;;22.05;15.95;;;12.40;99.90;;;;;;4206445;28;20043;-73
2021/08/21 01:59:42;;;;;;;18.95;15.07;;;12.40;99.90;;;;;;4213501;28;20380;-72
2021/08/21 02:01:43;;;;;;;23.45;17.13;;;12.40;99.90;;;;;;4193021;28;20024;-73
2021/08/21 02:03:46;;;;;;;42.83;22.65;;;12.40;99.90;;;;;;4213410;28;20032;-73
2021/08/21 02:05:47;;;;;;;57.47;26.13;;;12.40;99.90;;;;;;4207907;28;20031;-73
2021/08/21 02:07:48;;;;;;;67.50;27.80;;;12.40;99.90;;;;;;4195406;28;20040;-72
2021/08/21 02:09:49;;;;;;;136.90;34.38;;;12.50;99.90;;;;;;4191840;28;20037;-74
2021/08/21 02:11:51;;;;;;;116.07;33.90;;;12.60;99.90;;;;;;4211737;28;20491;-73
2021/08/21 02:13:51;;;;;;;259.98;46.97;;;12.70;99.90;;;;;;4210563;28;20051;-73
2021/08/21 02:15:52;;;;;;;169.30;41.63;;;12.70;99.90;;;;;;4212507;28;20032;-73
2021/08/21 02:17:53;;;;;;;137.10;38.80;;;12.80;99.90;;;;;;4211832;28;20499;-73
2021/08/21 02:19:53;;;;;;;136.57;42.15;;;12.80;99.90;;;;;;4212847;28;20025;-73
2021/08/21 02:21:56;;;;;;;359.10;61.75;;;12.80;99.90;;;;;;4210094;28;20369;-73
2021/08/21 02:23:58;;;;;;;139.63;41.55;;;12.80;99.90;;;;;;4203017;28;20043;-73
2021/08/21 02:25:59;;;;;;;234.15;51.80;;;12.80;99.90;;;;;;4210904;28;20037;-73
2021/08/21 02:28:07;;;;;;;232.10;51.67;;;12.80;99.90;;;;;;4211104;28;20075;-73
2021/08/21 02:30:09;;;;;;;209.40;47.28;;;12.70;99.90;;;;;;4208892;28;20131;-73
2021/08/21 02:32:09;;;;;;;141.77;40.10;;;12.70;99.90;;;;;;4208649;28;20064;-73
2021/08/21 02:34:10;;;;;;;255.57;54.47;;;12.70;99.90;;;;;;4211271;28;20482;-73
2021/08/21 02:36:12;;;;;;;93.97;37.55;;;12.70;99.90;;;;;;4192730;28;20087;-73
2021/08/21 02:38:13;;;;;;;134.45;39.30;;;12.70;99.90;;;;;;4194320;28;20553;-73
2021/08/21 02:40:14;;;;;;;104.18;36.30;;;12.70;99.90;;;;;;4207634;28;20150;-73
2021/08/21 02:42:15;;;;;;;141.68;41.47;;;12.70;99.90;;;;;;4208716;28;20047;-72
2021/08/21 02:44:15;;;;;;;137.25;39.42;;;12.70;99.90;;;;;;4179114;28;20729;-72
2021/08/21 02:46:16;;;;;;;339.17;57.50;;;12.60;99.90;;;;;;4185065;28;20029;-73
2021/08/21 02:48:17;;;;;;;240.75;52.92;;;12.60;99.90;;;;;;4178513;28;20045;-73
2021/08/21 02:50:18;;;;;;;123.63;36.22;;;12.70;99.90;;;;;;4184438;28;20029;-73
2021/08/21 02:52:19;;;;;;;87.57;36.78;;;12.60;99.90;;;;;;4179541;28;20039;-73
2021/08/21 02:54:19;;;;;;;120.00;37.38;;;12.60;99.90;;;;;;4184066;28;20151;-74
2021/08/21 02:56:20;;;;;;;79.13;31.50;;;12.60;99.90;;;;;;4179985;28;20032;-73
2021/08/21 02:58:20;;;;;;;81.20;36.10;;;12.50;99.90;;;;;;4189641;28;20045;-74
2021/08/21 03:00:21;;;;;;;105.78;39.35;;;12.50;99.90;;;;;;4178509;28;20102;-73
2021/08/21 03:02:21;;;;;;;78.25;36.75;;;12.50;99.90;;;;;;4179991;28;20485;-73
2021/08/21 03:04:22;;;;;;;62.20;29.90;;;12.50;99.90;;;;;;4180102;28;20033;-72
2021/08/21 03:06:23;;;;;;;90.90;36.80;;;12.50;99.90;;;;;;4180906;28;20542;-74
2021/08/21 03:08:24;;;;;;;81.57;37.03;;;12.50;99.90;;;;;;4179686;28;20082;-73
2021/08/21 03:10:25;;;;;;;73.32;35.05;;;12.50;99.90;;;;;;4181358;28;20056;-74
2021/08/21 03:12:29;;;;;;;67.78;33.97;;;12.60;99.90;;;;;;4179223;28;20037;-74
2021/08/21 03:14:29;;;;;;;59.80;28.48;;;12.60;99.90;;;;;;4183189;28;20029;-74
2021/08/21 03:16:30;;;;;;;72.78;35.50;;;12.70;99.90;;;;;;4178768;28;20045;-74
2021/08/21 03:18:30;;;;;;;105.30;39.35;;;12.70;99.90;;;;;;4183614;28;20037;-74
2021/08/21 03:20:31;;;;;;;94.28;40.47;;;12.80;99.90;;;;;;4195574;28;20805;-73
2021/08/21 03:22:32;;;;;;;85.55;40.08;;;12.80;99.90;;;;;;4183270;28;20424;-74
2021/08/21 03:24:33;;;;;;;78.43;37.30;;;12.90;99.90;;;;;;4183488;28;20036;-73
2021/08/21 03:26:33;;;;;;;76.70;36.05;;;12.90;99.90;;;;;;4182518;28;20029;-74
2021/08/21 03:28:34;;;;;;;128.77;41.72;;;12.80;99.90;;;;;;4180276;28;20099;-73
2021/08/21 03:30:35;;;;;;;83.97;38.00;;;12.80;99.90;;;;;;4178514;28;20032;-72
2021/08/21 03:32:35;;;;;;;106.05;36.58;;;12.80;99.90;;;;;;4180633;28;20401;-74
2021/08/21 03:34:38;;;;;;;109.25;39.65;;;12.80;99.90;;;;;;4178065;28;20159;-73
2021/08/21 03:36:38;;;;;;;81.90;37.30;;;12.70;99.90;;;;;;4193137;28;20024;-73
2021/08/21 03:38:39;;;;;;;84.72;35.53;;;12.70;99.90;;;;;;4179026;28;20144;-73
2021/08/21 03:40:40;;;;;;;158.30;42.55;;;12.70;99.90;;;;;;4181964;28;20570;-73
2021/08/21 03:42:40;;;;;;;95.30;36.67;;;12.70;99.90;;;;;;4196272;28;20135;-73
2021/08/21 03:44:41;;;;;;;89.65;38.47;;;12.70;99.90;;;;;;4192656;28;20032;-73
2021/08/21 03:46:42;;;;;;;95.57;38.58;;;12.70;99.90;;;;;;4191561;28;20053;-74
2021/08/21 03:48:42;;;;;;;92.82;38.97;;;12.80;99.90;;;;;;4211305;28;20032;-73
2021/08/21 03:50:43;;;;;;;88.82;39.85;;;12.80;99.90;;;;;;4190112;28;20032;-74
2021/08/21 03:52:43;;;;;;;82.80;38.92;;;12.80;99.90;;;;;;4191180;28;20060;-74
2021/08/21 03:54:44;;;;;;;79.60;38.80;;;12.80;99.90;;;;;;4190273;28;20053;-74
2021/08/21 03:56:45;;;;;;;76.80;37.67;;;12.90;99.90;;;;;;4191914;28;20396;-73
2021/08/21 03:58:46;;;;;;;81.05;39.90;;;12.90;99.90;;;;;;4194386;28;20032;-74
2021/08/21 04:00:46;;;;;;;82.55;38.95;;;12.90;99.90;;;;;;4189387;28;20051;-75
2021/08/21 04:02:47;;;;;;;72.90;35.90;;;12.90;99.90;;;;;;4195639;28;20115;-74
2021/08/21 04:04:47;;;;;;;59.28;29.20;;;12.90;99.90;;;;;;4190544;28;20033;-74
2021/08/21 04:06:48;;;;;;;70.13;32.28;;;13.00;99.90;;;;;;4194238;28;20420;-73
2021/08/21 04:08:49;;;;;;;77.55;37.38;;;13.00;99.90;;;;;;4191270;28;20036;-75
2021/08/21 04:10:49;;;;;;;73.13;36.92;;;13.00;99.90;;;;;;4193571;28;20041;-74
2021/08/21 04:12:50;;;;;;;74.13;36.53;;;13.00;99.90;;;;;;4193130;28;20612;-73
2021/08/21 04:14:51;;;;;;;71.43;35.40;;;13.00;99.90;;;;;;4193818;28;20047;-73
2021/08/21 04:16:51;;;;;;;69.80;37.00;;;13.00;99.90;;;;;;4193595;28;20054;-73
2021/08/21 04:18:52;;;;;;;79.47;37.15;;;12.90;99.90;;;;;;4195743;28;20025;-74
2021/08/21 04:20:53;;;;;;;90.32;40.28;;;12.90;99.90;;;;;;4191723;28;20423;-74
2021/08/21 04:22:54;;;;;;;79.30;36.08;;;12.80;99.90;;;;;;4195274;28;20079;-74
2021/08/21 04:24:54;;;;;;;73.03;34.67;;;12.80;99.90;;;;;;4194510;28;20966;-73
2021/08/21 04:26:55;;;;;;;81.50;37.30;;;12.80;99.90;;;;;;4192762;28;20356;-74
2021/08/21 04:28:55;;;;;;;78.95;39.60;;;12.70;99.90;;;;;;4191469;28;20027;-74
2021/08/21 04:30:57;;;;;;;80.57;39.03;;;12.70;99.90;;;;;;4193667;28;20028;-73
2021/08/21 04:32:58;;;;;;;114.38;45.85;;;12.70;99.90;;;;;;4193205;28;20029;-73
2021/08/21 04:34:58;;;;;;;97.65;43.70;;;12.70;99.90;;;;;;4193297;28;20117;-74
2021/08/21 04:37:00;;;;;;;151.23;50.63;;;12.70;99.90;;;;;;4191369;28;20032;-73
2021/08/21 04:39:02;;;;;;;92.10;41.05;;;12.70;99.90;;;;;;4189589;28;20033;-73
2021/08/21 04:41:02;;;;;;;103.18;42.67;;;12.70;99.90;;;;;;4192088;28;20029;-73
2021/08/21 04:43:03;;;;;;;140.60;48.83;;;12.70;99.90;;;;;;4180388;28;20412;-72
2021/08/21 04:45:05;;;;;;;214.10;55.60;;;12.70;99.90;;;;;;4177525;28;20037;-73
2021/08/21 04:47:06;;;;;;;161.48;53.35;;;12.70;99.90;;;;;;4180627;28;20430;-73
2021/08/21 04:49:06;;;;;;;145.07;48.15;;;12.80;99.90;;;;;;4177455;28;20033;-73
2021/08/21 04:51:07;;;;;;;139.73;47.78;;;12.80;99.90;;;;;;4182034;28;20096;-73
2021/08/21 04:53:08;;;;;;;123.10;45.17;;;12.80;99.90;;;;;;4185321;28;20456;-72
2021/08/21 04:55:09;;;;;;;128.40;48.35;;;12.80;99.90;;;;;;4184133;28;20099;-73
2021/08/21 04:57:09;;;;;;;121.95;46.63;;;12.90;99.90;;;;;;4178862;28;20027;-74
2021/08/21 04:59:10;;;;;;;164.98;51.22;;;12.90;99.90;;;;;;4186740;28;20037;-74
2021/08/21 05:01:10;;;;;;;261.13;63.58;;;12.90;99.90;;;;;;4180380;28;20036;-73
2021/08/21 05:03:11;;;;;;;132.63;49.67;;;13.00;99.90;;;;;;4176870;28;20037;-74
2021/08/21 05:05:12;;;;;;;183.40;50.90;;;13.00;99.90;;;;;;4181462;28;20083;-74
2021/08/21 05:07:12;;;;;;;203.70;58.33;;;13.10;99.90;;;;;;4177590;28;20079;-74
2021/08/21 05:09:13;;;;;;;195.75;57.78;;;13.20;99.90;;;;;;4182434;28;20398;-73
2021/08/21 05:11:14;;;;;;;193.88;56.95;;;13.20;99.90;;;;;;4177702;28;20392;-74
2021/08/21 05:13:14;;;;;;;201.43;59.00;;;13.30;99.90;;;;;;4182104;28;20125;-74
2021/08/21 05:15:15;;;;;;;161.50;56.83;;;13.30;99.90;;;;;;4179505;28;20586;-74
2021/08/21 05:17:16;;;;;;;151.30;56.50;;;13.40;99.90;;;;;;4183673;28;20036;-74
2021/08/21 05:21:26;;;;;;;314.70;68.63;;;13.50;99.90;;;;;;4185232;28;20048;-73
2021/08/21 05:23:27;;;;;;;351.20;73.60;;;13.50;99.90;;;;;;4181799;28;20075;-73
2021/08/21 05:25:28;;;;;;;173.88;49.30;;;13.60;99.90;;;;;;4191106;28;20036;-72
2021/08/21 05:27:28;;;;;;;311.58;64.65;;;13.70;99.90;;;;;;4181740;28;20495;-73
2021/08/21 05:29:30;;;;;;;326.23;73.60;;;13.70;99.90;;;;;;4181963;28;20059;-73
2021/08/21 05:31:30;;;;;;;301.10;70.78;;;13.80;99.90;;;;;;4180284;28;20091;-74
2021/08/21 05:33:33;;;;;;;362.98;79.30;;;13.90;99.90;;;;;;4183037;28;20076;-73
2021/08/21 05:35:33;;;;;;;287.00;70.10;;;14.00;99.90;;;;;;4181156;28;20123;-74
2021/08/21 05:37:34;;;;;;;324.65;76.00;;;14.00;99.90;;;;;;4185683;28;20106;-72
2021/08/21 05:39:35;;;;;;;215.63;67.22;;;14.00;99.90;;;;;;4181764;28;20048;-71
2021/08/21 05:41:35;;;;;;;169.98;63.20;;;14.10;99.90;;;;;;4184583;28;20071;-74
2021/08/21 05:43:36;;;;;;;184.38;66.07;;;14.20;99.90;;;;;;4200930;28;20067;-74
2021/08/21 05:45:36;;;;;;;168.20;63.03;;;14.20;99.90;;;;;;4212804;28;20059;-71
2021/08/21 05:47:37;;;;;;;176.65;61.67;;;14.30;99.90;;;;;;4205149;28;20037;-71
2021/08/21 05:49:38;;;;;;;175.68;66.35;;;14.30;99.90;;;;;;4213084;28;20059;-74
2021/08/21 05:51:38;;;;;;;155.60;63.42;;;14.40;99.90;;;;;;4211422;28;20394;-72
2021/08/21 05:53:39;;;;;;;140.98;60.60;;;14.40;99.90;;;;;;4204510;28;20047;-74
2021/08/21 05:55:40;;;;;;;175.45;67.07;;;14.40;99.90;;;;;;4212358;28;20028;-74
2021/08/21 05:57:40;;;;;;;139.57;59.90;;;14.50;99.90;;;;;;4188658;28;20440;-74
2021/08/21 05:59:42;;;;;;;163.13;65.43;;;14.50;99.90;;;;;;4213240;28;20063;-73
2021/08/21 06:01:42;;;;;;;136.07;60.17;;;14.60;99.90;;;;;;4207437;28;20067;-73
2021/08/21 06:03:43;;;;;;;135.23;58.85;;;14.60;99.90;;;;;;4213720;28;20486;-73
2021/08/21 06:05:44;;;;;;;118.65;53.78;;;14.60;99.90;;;;;;4205895;28;20067;-73
2021/08/21 06:07:44;;;;;;;116.95;53.47;;;14.70;99.90;;;;;;4212266;28;20315;-73
2021/08/21 06:09:45;;;;;;;123.63;60.50;;;14.70;99.90;;;;;;4208781;28;20047;-73
2021/08/21 06:11:46;;;;;;;116.70;54.25;;;14.80;99.90;;;;;;4195183;28;20596;-72
2021/08/21 06:13:47;;;;;;;125.90;57.42;;;14.80;99.90;;;;;;4209079;28;20058;-73
2021/08/21 06:15:47;;;;;;;122.90;55.97;;;14.90;99.90;;;;;;4195523;28;20029;-73
2021/08/21 06:17:48;;;;;;;120.50;56.42;;;15.00;99.90;;;;;;4210166;28;20459;-74
2021/08/21 06:19:48;;;;;;;111.30;53.78;;;15.00;99.90;;;;;;4213339;28;20091;-73
2021/08/21 06:21:50;;;;;;;110.10;54.03;;;15.10;99.90;;;;;;4209639;28;20391;-73
2021/08/21 06:23:50;;;;;;;108.47;53.10;;;15.10;99.90;;;;;;4183440;28;20568;-74
2021/08/21 06:25:51;;;;;;;103.75;54.97;;;15.20;99.90;;;;;;4192464;28;20033;-74
2021/08/21 06:27:51;;;;;;;94.97;49.97;;;15.20;99.90;;;;;;4213796;28;20044;-74
2021/08/21 06:29:52;;;;;;;109.20;56.95;;;15.10;99.90;;;;;;4192728;28;20036;-72
2021/08/21 06:31:53;;;;;;;99.57;51.42;;;15.10;99.90;;;;;;4213650;28;20040;-74
2021/08/21 06:33:53;;;;;;;105.70;53.03;;;15.10;99.90;;;;;;4195295;28;20527;-73
2021/08/21 06:35:53;;;;;;;94.35;49.88;;;15.10;99.90;;;;;;4211921;28;20032;-74
2021/08/21 06:37:54;;;;;;;105.40;53.55;;;15.10;99.90;;;;;;4211757;28;20040;-74
2021/08/21 06:39:54;;;;;;;99.53;53.05;;;15.20;99.90;;;;;;4209067;28;20036;-74
2021/08/21 06:41:55;;;;;;;94.32;51.53;;;15.20;99.90;;;;;;4193524;28;20036;-74
2021/08/21 06:43:56;;;;;;;81.88;46.33;;;15.30;99.90;;;;;;4209876;28;20437;-74
2021/08/21 06:45:56;;;;;;;108.43;54.15;;;15.40;99.90;;;;;;4194105;28;20487;-74
2021/08/21 06:47:57;;;;;;;97.47;54.13;;;15.50;99.90;;;;;;4190106;28;20049;-74
2021/08/21 06:49:58;;;;;;;96.72;52.28;;;15.60;99.90;;;;;;4211687;28;20040;-74
2021/08/21 06:51:59;;;;;;;97.47;50.83;;;15.80;99.90;;;;;;4211943;28;20051;-73
2021/08/21 06:53:59;;;;;;;92.20;54.33;;;16.00;99.90;;;;;;4210788;28;20048;-72
2021/08/21 06:56:01;;;;;;;99.93;54.38;;;16.30;99.90;;;;;;4194486;28;20031;-73
2021/08/21 06:58:02;;;;;;;98.40;57.10;;;16.40;99.90;;;;;;4188408;28;20052;-74
2021/08/21 07:00:03;;;;;;;99.90;55.03;;;16.60;99.90;;;;;;4204799;28;20036;-73
2021/08/21 07:02:04;;;;;;;100.80;55.70;;;16.70;99.90;;;;;;4194838;28;20061;-73
2021/08/21 07:04:05;;;;;;;108.90;57.70;;;16.90;99.90;;;;;;4211913;28;20425;-74
2021/08/21 07:06:06;;;;;;;108.97;58.90;;;17.20;99.90;;;;;;4212504;28;20040;-73
2021/08/21 07:08:06;;;;;;;97.28;53.45;;;17.40;99.90;;;;;;4211477;28;20032;-72
2021/08/21 07:10:07;;;;;;;91.18;50.33;;;17.50;99.90;;;;;;4212334;28;20028;-73
2021/08/21 07:12:10;;;;;;;87.72;49.15;;;17.50;99.90;;;;;;4211145;28;20395;-72
2021/08/21 07:14:11;;;;;;;83.40;48.95;;;17.60;99.90;;;;;;4213097;28;20069;-74
2021/08/21 07:16:12;;;;;;;82.85;48.53;;;17.90;99.90;;;;;;4211523;28;20063;-71
2021/08/21 07:18:13;;;;;;;75.80;46.05;;;18.10;99.90;;;;;;4194677;28;20079;-72
2021/08/21 07:20:13;;;;;;;74.88;43.13;;;17.90;99.90;;;;;;4206370;28;20048;-72
2021/08/21 07:22:14;;;;;;;69.90;41.70;;;17.90;99.90;;;;;;4212606;28;20387;-73
2021/08/21 07:24:14;;;;;;;68.18;41.75;;;17.70;99.90;;;;;;4191133;28;20102;-73
2021/08/21 07:26:15;;;;;;;58.83;40.17;;;17.70;99.90;;;;;;4192348;28;20162;-73
2021/08/21 07:28:15;;;;;;;63.20;40.30;;;17.60;99.90;;;;;;4191596;28;20499;-72
2021/08/21 07:30:16;;;;;;;56.38;38.97;;;17.60;99.90;;;;;;4206419;28;20043;-74
2021/08/21 07:32:16;;;;;;;54.13;37.30;;;17.60;99.90;;;;;;4210669;28;20032;-73
2021/08/21 07:34:17;;;;;;;57.35;39.42;;;17.70;99.90;;;;;;4205651;28;20028;-73
2021/08/21 07:36:18;;;;;;;55.83;37.13;;;17.90;99.90;;;;;;4211579;28;20391;-72
2021/08/21 07:38:18;;;;;;;45.03;34.85;;;18.10;99.90;;;;;;4207640;28;20032;-72
2021/08/21 07:40:19;;;;;;;44.70;32.60;;;18.50;99.90;;;;;;4209494;28;20088;-73
2021/08/21 07:42:19;;;;;;;37.22;30.45;;;18.80;99.90;;;;;;4187662;28;20045;-74
2021/08/21 07:44:20;;;;;;;40.97;30.63;;;19.10;99.90;;;;;;4190736;28;20037;-73
2021/08/21 07:46:20;;;;;;;43.22;36.70;;;19.30;99.90;;;;;;4189622;28;21967;-73
2021/08/21 07:48:22;;;;;;;37.58;31.67;;;19.30;99.90;;;;;;4194022;28;20120;-74
2021/08/21 07:50:22;;;;;;;34.75;30.90;;;19.50;99.90;;;;;;4191564;28;20441;-73
2021/08/21 07:52:23;;;;;;;34.95;29.55;;;19.60;99.90;;;;;;4194779;28;20048;-73
2021/08/21 07:54:23;;;;;;;35.58;29.08;;;19.50;99.90;;;;;;4194071;28;20048;-73
2021/08/21 07:56:24;;;;;;;34.33;29.90;;;19.70;99.90;;;;;;4194446;28;20036;-73
2021/08/21 07:58:25;;;;;;;31.60;27.02;;;19.90;99.90;;;;;;4194664;28;20383;-74
2021/08/21 08:00:25;;;;;;;28.83;25.75;;;20.30;99.90;;;;;;4195200;28;20036;-73
2021/08/21 08:02:26;;;;;;;26.33;21.95;;;20.60;99.90;;;;;;4193476;28;20036;-74
2021/08/21 08:04:27;;;;;;;26.55;23.75;;;20.70;99.90;;;;;;4191603;28;20040;-73
2021/08/21 08:06:27;;;;;;;27.33;21.42;;;20.90;99.90;;;;;;4188979;28;20547;-74
2021/08/21 08:08:28;;;;;;;24.45;16.60;;;21.10;99.90;;;;;;4194836;28;20115;-71
2021/08/21 08:10:29;;;;;;;20.95;18.50;;;21.20;99.90;;;;;;4188931;28;20053;-73
2021/08/21 08:12:29;;;;;;;22.13;18.70;;;21.20;99.90;;;;;;4195119;28;20384;-74
2021/08/21 08:14:30;;;;;;;21.48;18.70;;;21.10;99.90;;;;;;4190090;28;20043;-72
2021/08/21 08:16:31;;;;;;;23.00;20.50;;;21.30;99.90;;;;;;4195205;28;20086;-73
2021/08/21 08:18:31;;;;;;;22.02;18.73;;;21.40;99.90;;;;;;4191977;28;20153;-73
2021/08/21 08:20:32;;;;;;;25.63;21.75;;;21.50;99.90;;;;;;4188921;28;20393;-73
2021/08/21 08:22:33;;;;;;;24.15;19.42;;;21.40;99.90;;;;;;4193761;28;20040;-72
2021/08/21 08:24:34;;;;;;;24.63;20.30;;;21.30;99.90;;;;;;4184752;28;20123;-73
2021/08/21 08:26:34;;;;;;;23.38;20.95;;;21.30;99.90;;;;;;4193192;28;20029;-73
2021/08/21 08:28:35;;;;;;;25.60;21.95;;;21.30;99.90;;;;;;4194919;28;20041;-71
2021/08/21 08:30:36;;;;;;;24.98;20.52;;;21.20;99.90;;;;;;4194532;28;20067;-73
2021/08/21 08:32:36;;;;;;;33.60;27.50;;;21.30;99.90;;;;;;4193116;28;20040;-73
2021/08/21 08:34:37;;;;;;;27.27;22.17;;;21.50;99.90;;;;;;4193543;28;20047;-73
2021/08/21 08:36:37;;;;;;;21.98;19.70;;;21.70;99.90;;;;;;4193510;28;20118;-75
2021/08/21 08:38:38;;;;;;;30.60;27.38;;;21.90;99.90;;;;;;4193411;28;20499;-73
2021/08/21 08:40:39;;;;;;;22.52;20.13;;;22.00;99.90;;;;;;4194325;28;20037;-73
2021/08/21 08:42:41;;;;;;;24.88;21.80;;;22.10;99.90;;;;;;4199144;28;20043;-72
2021/08/21 08:44:46;;;;;;;25.33;21.27;;;22.30;99.90;;;;;;4192615;28;20037;-73
2021/08/21 08:46:46;;;;;;;28.30;25.38;;;22.50;99.90;;;;;;4211090;28;20302;-73
2021/08/21 08:48:48;;;;;;;22.02;19.73;;;22.60;99.90;;;;;;4210543;28;20056;-73
2021/08/21 08:50:48;;;;;;;25.65;23.00;;;22.70;99.90;;;;;;4210040;28;20051;-73
2021/08/21 08:52:49;;;;;;;25.08;22.20;;;22.60;99.90;;;;;;4193542;28;20132;-73
2021/08/21 08:54:49;;;;;;;23.40;20.80;;;22.60;99.90;;;;;;4193777;28;20036;-73
2021/08/21 08:56:50;;;;;;;24.17;20.80;;;22.80;99.90;;;;;;4209120;28;20096;-73
2021/08/21 08:58:51;;;;;;;21.98;19.63;;;23.20;99.90;;;;;;4215009;28;20489;-72
2021/08/21 09:00:52;;;;;;;21.83;19.73;;;23.60;99.90;;;;;;4194491;28;20115;-74
2021/08/21 09:02:55;;;;;;;24.20;21.88;;;23.70;99.90;;;;;;4210226;28;20415;-73
2021/08/21 09:05:01;;;;;;;24.50;21.92;;;23.70;99.90;;;;;;4193491;28;20128;-73
2021/08/21 09:07:02;;;;;;;24.30;21.80;;;23.50;99.90;;;;;;4206994;28;20116;-73
2021/08/21 09:09:17;;;;;;;24.15;21.63;;;23.40;99.90;;;;;;4194927;28;20537;-74
2021/08/21 09:11:19;;;;;;;22.48;18.80;;;23.70;99.90;;;;;;4191828;28;20040;-74
2021/08/21 09:13:20;;;;;;;21.30;19.10;;;24.00;99.90;;;;;;4210638;28;20048;-73
2021/08/21 09:15:28;;;;;;;21.15;18.65;;;24.20;99.90;;;;;;4211172;28;20427;-73
2021/08/21 09:17:29;;;;;;;21.20;19.05;;;24.10;99.90;;;;;;4212993;28;20032;-72
2021/08/21 09:19:29;;;;;;;22.90;18.35;;;24.00;99.90;;;;;;4194525;28;20161;-73
2021/08/21 09:21:32;;;;;;;20.63;18.52;;;23.90;99.90;;;;;;4194406;28;20111;-73
2021/08/21 09:23:43;;;;;;;19.33;17.33;;;23.80;99.90;;;;;;4206282;28;20044;-74
2021/08/21 09:25:45;;;;;;;22.17;19.67;;;23.70;99.90;;;;;;4207498;28;20101;-73
2021/08/21 09:27:46;;;;;;;25.65;19.63;;;23.80;99.90;;;;;;4207180;28;20036;-73
2021/08/21 09:30:17;;;;;;;18.80;16.83;;;23.80;99.90;;;;;;4214576;28;20514;-73
2021/08/21 09:32:28;;;;;;;19.92;18.02;;;23.90;99.90;;;;;;4192121;28;20032;-73
2021/08/21 09:34:30;;;;;;;22.85;18.80;;;24.40;99.90;;;;;;4192233;28;20142;-74
2021/08/21 09:36:39;;;;;;;21.02;18.55;;;24.60;99.90;;;;;;4195679;28;20404;-73
2021/08/21 09:38:41;;;;;;;21.27;19.05;;;24.70;99.90;;;;;;4212520;28;20035;-73
2021/08/21 09:40:42;;;;;;;20.65;18.48;;;24.80;99.90;;;;;;4195105;28;20119;-73
2021/08/21 09:42:43;;;;;;;22.45;20.02;;;24.70;99.90;;;;;;4195627;28;20033;-74
2021/08/21 09:44:44;;;;;;;22.50;18.75;;;24.90;99.90;;;;;;4196186;28;20119;-73
2021/08/21 09:46:44;;;;;;;19.73;17.70;;;25.10;99.90;;;;;;4194363;28;20064;-73
2021/08/21 09:48:56;;;;;;;21.88;19.58;;;25.30;99.90;;;;;;4196553;28;20036;-73
2021/08/21 09:50:57;;;;;;;22.25;19.67;;;25.40;99.90;;;;;;4190201;28;20371;-74
2021/08/21 09:53:10;;;;;;;20.70;18.55;;;25.50;99.90;;;;;;4196523;28;20036;-73
2021/08/21 09:55:16;;;;;;;18.33;15.65;;;25.90;99.90;;;;;;4191089;28;20436;-75
2021/08/21 09:57:21;;;;;;;17.83;16.08;;;26.00;99.90;;;;;;4193924;28;20031;-74
2021/08/21 09:59:38;;;;;;;18.08;16.17;;;26.20;99.90;;;;;;4193400;28;20453;-74
2021/08/21 10:01:40;;;;;;;17.10;14.35;;;26.30;99.90;;;;;;4196578;28;20108;-74
2021/08/21 10:03:40;;;;;;;13.65;12.10;;;26.60;99.90;;;;;;4195330;28;20032;-73
2021/08/21 10:05:48;;;;;;;15.20;12.77;;;26.60;99.90;;;;;;4195998;28;20028;-74
2021/08/21 10:07:55;;;;;;;17.30;15.52;;;26.90;99.90;;;;;;4194182;28;20050;-73
2021/08/21 10:09:56;;;;;;;18.55;16.65;;;26.70;99.90;;;;;;4194577;28;20047;-74
2021/08/21 10:11:57;;;;;;;18.35;15.93;;;26.60;99.90;;;;;;4194820;28;20029;-73
2021/08/21 10:13:58;;;;;;;17.95;16.08;;;26.50;99.90;;;;;;4188666;28;20056;-73